createdAt,value
2022-12-29T00:03:04.152Z,99249.50
2022-12-29T00:08:05.415Z,99239.63
2022-12-29T00:13:25.051Z,99225.00
2022-12-29T00:18:26.225Z,99208.03
2022-12-29T00:23:45.866Z,99207.44
2022-12-29T00:29:05.736Z,99208.66
2022-12-29T00:34:25.368Z,99189.84
2022-12-29T00:39:45.117Z,99183.41
2022-12-29T00:44:46.269Z,99182.50
2022-12-29T00:49:47.450Z,99176.94
2022-12-29T00:54:48.600Z,99179.72
2022-12-29T00:59:49.744Z,99170.59
2022-12-29T01:04:50.968Z,99177.53
2022-12-29T01:10:10.752Z,99176.94
2022-12-29T01:15:12.033Z,99179.72
2022-12-29T01:20:13.244Z,99168.44
2022-12-29T01:25:15.349Z,99168.16
2022-12-29T01:30:16.484Z,99194.06
2022-12-29T01:35:19.597Z,99186.66
2022-12-29T01:40:20.748Z,99184.78
2022-12-29T01:45:21.939Z,99183.88
2022-12-29T01:50:23.155Z,99182.31
2022-12-29T01:55:24.380Z,99176.47
2022-12-29T02:00:25.516Z,99164.09
2022-12-29T02:05:26.709Z,99163.19
2022-12-29T02:10:27.940Z,99151.91
2022-12-29T02:15:29.098Z,99151.00
2022-12-29T02:20:30.307Z,99149.28
2022-12-29T02:25:31.499Z,99143.72
2022-12-29T02:30:32.662Z,99129.06
2022-12-29T02:35:33.887Z,99125.34
2022-12-29T02:40:35.092Z,99127.50
2022-12-29T02:45:36.310Z,99117.34
2022-12-29T02:50:37.559Z,99113.16
2022-12-29T02:55:38.789Z,99111.94
2022-12-29T03:00:39.985Z,99104.06
2022-12-29T03:05:41.225Z,99102.81
2022-12-29T03:10:42.415Z,99100.41
2022-12-29T03:16:02.387Z,99083.28
2022-12-29T03:21:03.638Z,99086.63
2022-12-29T03:26:04.866Z,99069.63
2022-12-29T03:31:06.062Z,99075.94
2022-12-29T03:36:07.493Z,99071.81
2022-12-29T03:41:08.725Z,99066.88
2022-12-29T03:46:10.120Z,99072.28
2022-12-29T03:51:11.340Z,99069.13
2022-12-29T03:56:12.501Z,99063.88
2022-12-29T04:01:13.817Z,99043.44
2022-12-29T04:06:15.610Z,99046.44
2022-12-29T04:11:16.811Z,99053.69
2022-12-29T04:16:20.104Z,99049.06
2022-12-29T04:21:21.340Z,99036.56
2022-12-29T04:26:22.533Z,99039.66
2022-12-29T04:31:23.863Z,99041.81
2022-12-29T04:36:29.667Z,99040.00
2022-12-29T04:41:31.314Z,99039.69
2022-12-29T04:46:32.560Z,99048.44
2022-12-29T04:51:33.792Z,99059.38
2022-12-29T04:56:35.015Z,99057.50
2022-12-29T05:01:36.250Z,99068.31
2022-12-29T05:06:37.521Z,99054.69
2022-12-29T05:11:38.672Z,99055.31
2022-12-29T05:16:39.991Z,99053.38
2022-12-29T05:21:41.202Z,99052.50
2022-12-29T05:26:42.370Z,99073.13
2022-12-29T05:31:43.641Z,99090.69
2022-12-29T05:36:44.890Z,99076.00
2022-12-29T05:41:46.051Z,99073.81
2022-12-29T05:46:47.350Z,99081.19
2022-12-29T05:51:48.563Z,99099.16
2022-12-29T05:56:49.702Z,99087.88
2022-12-29T06:01:51.037Z,99093.78
2022-12-29T06:06:52.435Z,99097.09
2022-12-29T06:11:53.576Z,99084.78
2022-12-29T06:16:54.756Z,99089.06
2022-12-29T06:21:55.941Z,99084.53
2022-12-29T06:26:57.135Z,99085.44
2022-12-29T06:31:59.303Z,99081.19
2022-12-29T06:37:00.641Z,99100.06
2022-12-29T06:42:01.775Z,99103.50
2022-12-29T06:47:02.960Z,99112.22
2022-12-29T06:52:10.856Z,99107.16
2022-12-29T06:57:13.774Z,99114.59
2022-12-29T07:02:15.933Z,99106.59
2022-12-29T07:07:17.628Z,99118.50
2022-12-29T07:12:18.793Z,99120.78
2022-12-29T07:17:19.984Z,99127.84
2022-12-29T07:22:21.187Z,99136.75
2022-12-29T07:27:22.370Z,99147.13
2022-12-29T07:32:23.671Z,99155.94
2022-12-29T07:37:25.067Z,99156.88
2022-12-29T07:42:26.246Z,99168.91
2022-12-29T07:47:27.454Z,99179.47
2022-12-29T07:52:28.671Z,99199.47
2022-12-29T07:57:32.061Z,99197.59
2022-12-29T08:02:33.824Z,99203.88
2022-12-29T08:07:35.210Z,99203.75
2022-12-29T08:12:36.397Z,99212.81
2022-12-29T08:17:37.617Z,99209.44
2022-12-29T08:22:38.821Z,99218.78
2022-12-29T08:27:39.975Z,99226.94
2022-12-29T08:32:41.188Z,99217.69
2022-12-29T08:37:42.488Z,99223.91
2022-12-29T08:42:43.763Z,99229.84
2022-12-29T08:47:45.014Z,99229.97
2022-12-29T08:52:46.188Z,99235.81
2022-12-29T08:57:47.808Z,99248.19
2022-12-29T09:02:49.113Z,99246.16
2022-12-29T09:07:50.438Z,99247.84
2022-12-29T09:12:51.609Z,99260.94
2022-12-29T09:17:52.756Z,99266.00
2022-12-29T09:22:54.726Z,99277.91
2022-12-29T09:27:55.947Z,99248.47
2022-12-29T09:32:57.108Z,99306.28
2022-12-29T09:37:58.291Z,99315.50
2022-12-29T09:42:59.480Z,99319.91
2022-12-29T09:48:04.114Z,99313.63
2022-12-29T09:53:07.973Z,99329.88
2022-12-29T09:58:09.134Z,99332.19
2022-12-29T10:03:10.445Z,99317.19
2022-12-29T10:08:15.807Z,99329.13
2022-12-29T10:13:18.760Z,99313.06
2022-12-29T10:18:19.971Z,99318.13
2022-12-29T10:23:21.188Z,99331.78
2022-12-29T10:28:22.317Z,99325.88
2022-12-29T10:33:24.641Z,99317.94
2022-12-29T10:38:25.968Z,99301.88
2022-12-29T10:43:27.170Z,99338.41
2022-12-29T10:48:31.811Z,99336.22
2022-12-29T10:53:33.317Z,99335.44
2022-12-29T10:58:34.547Z,99325.88
2022-12-29T11:03:35.759Z,99340.75
2022-12-29T11:08:36.923Z,99336.22
2022-12-29T11:13:39.432Z,99339.72
2022-12-29T11:18:40.843Z,99325.50
2022-12-29T11:23:42.048Z,99344.09
2022-12-29T11:28:43.187Z,99356.94
2022-12-29T11:33:44.479Z,99352.88
2022-12-29T11:38:45.921Z,99364.97
2022-12-29T11:43:48.515Z,99368.09
2022-12-29T11:48:49.778Z,99363.78
2022-12-29T11:53:50.989Z,99376.66
2022-12-29T11:58:54.213Z,99372.19
2022-12-29T12:03:55.706Z,99382.25
2022-12-29T12:08:56.901Z,99378.25
2022-12-29T12:13:58.087Z,99384.00
2022-12-29T12:18:59.365Z,99392.66
2022-12-29T12:24:00.538Z,99399.47
2022-12-29T12:29:01.774Z,99404.41
2022-12-29T12:34:02.960Z,99409.53
2022-12-29T12:39:04.173Z,99413.25
2022-12-29T12:44:05.388Z,99416.97
2022-12-29T12:49:06.757Z,99420.97
2022-12-29T12:54:08.269Z,99420.81
2022-12-29T12:59:10.208Z,99421.47
2022-12-29T13:04:11.494Z,99427.47
2022-12-29T13:09:12.723Z,99401.81
2022-12-29T13:14:13.884Z,99431.19
2022-12-29T13:19:15.120Z,99432.91
2022-12-29T13:24:16.396Z,99423.47
2022-12-29T13:29:17.664Z,99406.78
2022-12-29T13:34:19.020Z,99421.19
2022-12-29T13:39:21.234Z,99433.72
2022-12-29T13:44:22.628Z,99429.09
2022-12-29T13:49:25.554Z,99440.53
2022-12-29T13:54:26.979Z,99441.94
2022-12-29T13:59:28.195Z,99440.69
2022-12-29T14:04:29.470Z,99438.06
2022-12-29T14:09:35.271Z,99451.38
2022-12-29T14:14:36.892Z,99409.53
2022-12-29T14:19:38.059Z,99456.47
2022-12-29T14:24:39.770Z,99465.47
2022-12-29T14:29:41.016Z,99473.50
2022-12-29T14:34:43.672Z,99463.78
2022-12-29T14:39:46.521Z,99461.00
2022-12-29T14:44:47.850Z,99477.38
2022-12-29T14:49:49.052Z,99479.66
2022-12-29T14:54:50.633Z,99502.09
2022-12-29T14:59:51.814Z,99499.16
2022-12-29T15:04:52.986Z,99481.38
2022-12-29T15:09:54.196Z,99490.16
2022-12-29T15:14:55.390Z,99498.81
2022-12-29T15:19:56.730Z,99495.25
2022-12-29T15:24:57.987Z,99492.31
2022-12-29T15:29:59.252Z,99496.91
2022-12-29T15:35:02.098Z,99507.84
2022-12-29T15:40:03.447Z,99518.19
2022-12-29T15:45:10.638Z,99514.66
2022-12-29T15:50:12.500Z,99533.00
2022-12-29T15:55:13.723Z,99537.59
2022-12-29T16:00:14.877Z,99545.31
2022-12-29T16:05:19.806Z,99534.16
2022-12-29T16:10:20.987Z,99537.81
2022-12-29T16:15:22.356Z,99545.59
2022-12-29T16:20:23.536Z,99546.75
2022-12-29T16:25:24.689Z,99546.66
2022-12-29T16:30:31.222Z,99552.16
2022-12-29T16:35:34.913Z,99553.78
2022-12-29T16:40:36.050Z,99557.25
2022-12-29T16:45:37.219Z,99552.81
2022-12-29T16:50:38.366Z,99562.00
2022-12-29T16:55:39.544Z,99574.22
2022-12-29T17:00:40.731Z,99581.84
2022-12-29T17:05:41.888Z,99597.84
2022-12-29T17:11:01.849Z,99605.72
2022-12-29T17:16:03.119Z,99601.75
2022-12-29T17:21:04.397Z,99616.00
2022-12-29T17:26:05.608Z,99631.91
2022-12-29T17:31:07.078Z,99629.41
2022-12-29T17:36:08.316Z,99629.59
2022-12-29T17:41:09.519Z,99636.41
2022-12-29T17:46:10.844Z,99629.69
2022-12-29T17:51:12.083Z,99636.41
2022-12-29T17:56:14.293Z,99633.78
2022-12-29T18:01:15.634Z,99636.31
2022-12-29T18:06:16.916Z,99646.09
2022-12-29T18:11:18.099Z,99648.06
2022-12-29T18:16:19.280Z,99653.56
2022-12-29T18:21:20.600Z,99667.34
2022-12-29T18:26:27.692Z,99697.78
2022-12-29T18:31:29.670Z,99697.28
2022-12-29T18:36:30.948Z,99693.56
2022-12-29T18:41:32.296Z,99700.00
2022-12-29T18:46:33.519Z,99712.22
2022-12-29T18:51:34.740Z,99708.69
2022-12-29T18:56:35.928Z,99724.97
2022-12-29T19:01:37.244Z,99719.22
2022-12-29T19:06:38.535Z,99719.50
2022-12-29T19:11:39.883Z,99720.94
2022-12-29T19:16:41.524Z,99721.44
2022-12-29T19:21:42.805Z,99730.19
2022-12-29T19:26:44.094Z,99727.34
2022-12-29T19:31:45.530Z,99729.84
2022-12-29T19:36:46.899Z,99741.44
2022-12-29T19:41:48.105Z,99748.44
2022-12-29T19:46:49.320Z,99754.81
2022-12-29T19:51:50.607Z,99752.41
2022-12-29T19:56:51.820Z,99761.72
2022-12-29T20:01:53.201Z,99761.06
2022-12-29T20:06:54.533Z,99759.31
2022-12-29T20:11:55.717Z,99775.47
2022-12-29T20:17:10.943Z,99770.72
2022-12-29T20:22:12.698Z,99789.16
2022-12-29T20:27:13.968Z,99812.56
2022-12-29T20:32:15.681Z,99818.38
2022-12-29T20:37:16.938Z,99821.31
2022-12-29T20:42:18.122Z,99832.84
2022-12-29T20:47:19.334Z,99829.44
2022-12-29T20:52:20.555Z,99840.94
2022-12-29T20:57:21.754Z,99837.59
2022-12-29T21:02:23.128Z,99842.88
2022-12-29T21:07:24.427Z,99834.22
2022-12-29T21:12:25.569Z,99827.72
2022-12-29T21:17:26.793Z,99831.44
2022-12-29T21:22:27.986Z,99827.88
2022-12-29T21:27:29.232Z,99834.50
2022-12-29T21:32:30.401Z,99845.16
2022-12-29T21:37:31.705Z,99849.63
2022-12-29T21:42:32.912Z,99849.94
2022-12-29T21:47:52.811Z,99854.19
2022-12-29T21:52:53.966Z,99851.28
2022-12-29T21:58:13.645Z,99853.63
2022-12-29T22:03:33.537Z,99852.03
2022-12-29T22:08:53.364Z,99849.47
2022-12-29T22:13:56.247Z,99849.78
2022-12-29T22:18:57.430Z,99861.31
2022-12-29T22:23:58.778Z,99872.81
2022-12-29T22:29:00.041Z,99885.34
2022-12-29T22:34:01.298Z,99877.28
2022-12-29T22:39:02.521Z,99883.06
2022-12-29T22:44:04.937Z,99878.94
2022-12-29T22:49:06.092Z,99883.09
2022-12-29T22:54:07.235Z,99901.97
2022-12-29T22:59:08.374Z,99904.06
2022-12-29T23:04:55.771Z,99908.28
2022-12-29T23:09:30.796Z,99914.06
2022-12-29T23:14:32.026Z,99921.91
2022-12-29T23:19:33.229Z,99935.53
2022-12-29T23:24:34.400Z,99938.41
2022-12-29T23:29:35.606Z,99949.59
2022-12-29T23:34:36.794Z,99956.63
2022-12-29T23:39:38.052Z,99956.63
2022-12-29T23:44:39.309Z,99963.69
2022-12-29T23:49:40.517Z,99978.28
2022-12-29T23:54:41.786Z,99993.09
2022-12-29T23:59:42.930Z,99995.69
